createdAt,value
2022-09-30T00:01:45.464Z,1.73
2022-09-30T00:04:18.922Z,1.57
2022-09-30T00:06:46.624Z,1.70
2022-09-30T00:09:14.061Z,1.80
2022-09-30T00:11:41.655Z,1.60
2022-09-30T00:14:11.405Z,1.60
2022-09-30T00:16:38.868Z,1.57
2022-09-30T00:19:06.383Z,1.67
2022-09-30T00:21:36.606Z,1.83
2022-09-30T00:24:04.616Z,1.83
2022-09-30T00:26:32.482Z,1.70
2022-09-30T00:29:00.734Z,2.00
2022-09-30T00:31:29.927Z,1.47
2022-09-30T00:34:11.326Z,1.40
2022-09-30T00:37:05.000Z,1.60
2022-09-30T00:39:32.470Z,1.60
2022-09-30T00:42:00.927Z,1.80
2022-09-30T00:44:46.539Z,1.43
2022-09-30T00:47:31.334Z,1.50
2022-09-30T00:50:00.497Z,1.50
2022-09-30T00:52:28.230Z,1.37
2022-09-30T00:54:57.346Z,1.60
2022-09-30T00:57:24.795Z,1.80
2022-09-30T00:59:52.665Z,1.60
2022-09-30T01:02:20.050Z,1.70
2022-09-30T01:04:47.558Z,1.40
2022-09-30T01:07:15.355Z,1.63
2022-09-30T01:09:44.241Z,1.67
2022-09-30T01:12:13.679Z,1.77
2022-09-30T01:14:41.634Z,1.80
2022-09-30T01:17:14.811Z,1.63
2022-09-30T01:19:52.126Z,1.13
2022-09-30T01:22:22.606Z,1.33
2022-09-30T01:24:55.966Z,1.80
2022-09-30T01:27:26.399Z,1.70
2022-09-30T01:30:08.073Z,1.57
2022-09-30T01:32:42.598Z,1.43
2022-09-30T01:35:09.898Z,1.73
2022-09-30T01:37:40.250Z,1.53
2022-09-30T01:40:23.409Z,1.80
2022-09-30T01:43:05.947Z,2.00
2022-09-30T01:45:36.040Z,1.60
2022-09-30T01:48:21.517Z,1.40
2022-09-30T01:51:12.217Z,1.50
2022-09-30T01:53:46.369Z,1.53
2022-09-30T01:56:23.286Z,1.70
2022-09-30T01:58:57.540Z,1.80
2022-09-30T02:01:35.196Z,1.60
2022-09-30T02:04:05.655Z,1.80
2022-09-30T02:06:36.107Z,1.30
2022-09-30T02:09:06.760Z,1.47
2022-09-30T02:11:36.473Z,1.63
2022-09-30T02:14:07.656Z,1.63
2022-09-30T02:16:49.475Z,2.00
2022-09-30T02:19:20.431Z,1.60
2022-09-30T02:21:57.486Z,1.70
2022-09-30T02:24:26.298Z,1.70
2022-09-30T02:26:54.971Z,1.50
2022-09-30T02:29:23.869Z,1.83
2022-09-30T02:31:53.588Z,1.70
2022-09-30T02:34:27.397Z,1.83
2022-09-30T02:37:11.031Z,1.30
2022-09-30T02:39:42.313Z,1.60
2022-09-30T02:42:15.253Z,1.97
2022-09-30T02:44:42.952Z,1.50
2022-09-30T02:47:16.035Z,1.50
2022-09-30T02:49:50.701Z,1.83
2022-09-30T02:52:23.900Z,1.67
2022-09-30T02:55:07.189Z,1.63
2022-09-30T02:57:40.497Z,1.50
2022-09-30T03:00:12.698Z,1.70
2022-09-30T03:02:41.262Z,1.40
2022-09-30T03:05:09.651Z,1.60
2022-09-30T03:07:37.315Z,1.67
2022-09-30T03:10:17.511Z,1.50
2022-09-30T03:12:44.750Z,1.27
2022-09-30T03:15:14.868Z,1.50
2022-09-30T03:17:45.154Z,1.40
2022-09-30T03:20:22.150Z,1.50
2022-09-30T03:23:02.258Z,1.63
2022-09-30T03:25:44.113Z,1.30
2022-09-30T03:28:30.213Z,1.50
2022-09-30T03:30:57.474Z,1.70
2022-09-30T03:33:28.453Z,1.50
2022-09-30T03:36:02.066Z,1.50
2022-09-30T03:38:36.652Z,1.73
2022-09-30T03:41:07.249Z,1.30
2022-09-30T03:43:38.080Z,1.60
2022-09-30T03:46:06.918Z,1.50
2022-09-30T03:48:34.809Z,1.50
2022-09-30T03:51:02.213Z,1.37
2022-09-30T03:53:29.572Z,1.23
2022-09-30T03:55:56.921Z,1.43
2022-09-30T03:58:24.550Z,1.43
2022-09-30T04:00:53.662Z,1.27
2022-09-30T04:03:21.918Z,1.40
2022-09-30T04:05:49.291Z,1.70
2022-09-30T04:08:17.316Z,1.40
2022-09-30T04:10:45.075Z,1.60
2022-09-30T04:13:12.933Z,1.53
2022-09-30T04:15:40.667Z,1.30
2022-09-30T04:18:07.997Z,1.50
2022-09-30T04:20:35.389Z,1.53
2022-09-30T04:23:02.784Z,1.37
2022-09-30T04:25:30.092Z,1.50
2022-09-30T04:27:57.720Z,1.50
2022-09-30T04:30:28.049Z,1.60
2022-09-30T04:32:57.495Z,1.10
2022-09-30T04:35:25.062Z,1.30
2022-09-30T04:37:52.351Z,1.43
2022-09-30T04:40:19.677Z,1.17
2022-09-30T04:42:47.587Z,1.70
2022-09-30T04:45:15.226Z,1.50
2022-09-30T04:47:45.520Z,1.50
2022-09-30T04:50:13.324Z,1.50
2022-09-30T04:52:43.660Z,1.60
2022-09-30T04:55:11.416Z,1.50
2022-09-30T04:57:38.987Z,1.50
2022-09-30T05:00:09.290Z,1.20
2022-09-30T05:02:36.636Z,1.27
2022-09-30T05:05:04.203Z,1.47
2022-09-30T05:07:32.147Z,1.63
2022-09-30T05:09:59.495Z,1.70
2022-09-30T05:12:26.983Z,1.37
2022-09-30T05:14:54.358Z,1.23
2022-09-30T05:17:21.707Z,1.70
2022-09-30T05:19:49.024Z,1.50
2022-09-30T05:22:16.350Z,1.60
2022-09-30T05:24:43.713Z,1.20
2022-09-30T05:27:11.044Z,1.57
2022-09-30T05:29:38.763Z,1.37
2022-09-30T05:32:07.770Z,1.60
2022-09-30T05:34:35.162Z,1.37
2022-09-30T05:37:02.417Z,1.70
2022-09-30T05:39:29.923Z,1.50
2022-09-30T05:41:57.910Z,1.60
2022-09-30T05:44:25.273Z,1.80
2022-09-30T05:46:52.599Z,1.70
2022-09-30T05:49:19.969Z,1.77
2022-09-30T05:51:48.048Z,1.80
2022-09-30T05:54:15.323Z,1.43
2022-09-30T05:56:42.563Z,1.40
2022-09-30T05:59:09.916Z,1.80
2022-09-30T06:01:37.523Z,1.70
2022-09-30T06:04:04.781Z,1.80
2022-09-30T06:06:32.096Z,1.80
2022-09-30T06:09:00.294Z,1.50
2022-09-30T06:11:27.717Z,1.30
2022-09-30T06:13:55.023Z,1.73
2022-09-30T06:16:24.001Z,1.67
2022-09-30T06:18:51.377Z,1.67
2022-09-30T06:21:19.433Z,1.60
2022-09-30T06:23:46.755Z,1.30
2022-09-30T06:26:14.701Z,1.30
2022-09-30T06:28:42.550Z,1.33
2022-09-30T06:31:10.155Z,1.10
2022-09-30T06:33:37.640Z,1.23
2022-09-30T06:36:06.061Z,1.20
2022-09-30T06:38:34.194Z,1.30
2022-09-30T06:41:01.480Z,1.10
2022-09-30T06:43:29.299Z,1.17
2022-09-30T06:46:10.765Z,1.30
2022-09-30T06:48:41.166Z,1.37
2022-09-30T06:51:11.376Z,1.30
2022-09-30T06:53:40.150Z,1.10
2022-09-30T06:56:08.184Z,1.40
2022-09-30T06:58:35.537Z,1.30
2022-09-30T07:01:04.484Z,1.10
2022-09-30T07:03:33.632Z,1.30
2022-09-30T07:06:02.099Z,1.20
2022-09-30T07:08:31.507Z,1.00
2022-09-30T07:10:59.574Z,1.20
2022-09-30T07:13:27.186Z,1.10
2022-09-30T07:15:56.565Z,1.30
2022-09-30T07:18:24.865Z,1.00
2022-09-30T07:20:52.874Z,1.03
2022-09-30T07:23:25.800Z,1.40
2022-09-30T07:25:56.662Z,1.23
2022-09-30T07:28:28.014Z,1.37
2022-09-30T07:31:19.872Z,1.30
2022-09-30T07:33:46.649Z,1.20
2022-09-30T07:36:18.519Z,1.10
2022-09-30T07:38:46.746Z,1.20
2022-09-30T07:41:18.677Z,1.30
2022-09-30T07:43:46.899Z,1.40
2022-09-30T07:46:33.878Z,1.13
2022-09-30T07:49:04.088Z,1.20
2022-09-30T07:51:35.954Z,1.33
2022-09-30T07:54:05.917Z,1.20
2022-09-30T07:56:51.298Z,1.10
2022-09-30T07:59:20.991Z,1.23
2022-09-30T08:01:49.010Z,1.00
2022-09-30T08:04:16.806Z,1.00
2022-09-30T08:06:48.585Z,1.17
2022-09-30T08:09:17.781Z,1.00
2022-09-30T08:11:45.151Z,1.10
2022-09-30T08:14:16.365Z,1.40
2022-09-30T08:16:43.898Z,1.20
2022-09-30T08:19:16.618Z,1.33
2022-09-30T08:21:44.207Z,1.10
2022-09-30T08:24:11.638Z,1.30
2022-09-30T08:26:39.368Z,1.20
2022-09-30T08:29:06.886Z,1.20
2022-09-30T08:31:34.426Z,1.30
2022-09-30T08:34:03.141Z,1.20
2022-09-30T08:36:30.566Z,1.40
2022-09-30T08:38:57.946Z,1.45
2022-09-30T08:41:28.080Z,1.40
2022-09-30T08:44:10.836Z,1.50
2022-09-30T08:46:49.530Z,1.30
2022-09-30T08:49:19.939Z,1.37
2022-09-30T08:51:48.397Z,1.23
2022-09-30T08:54:17.268Z,1.50
2022-09-30T08:56:45.848Z,1.77
2022-09-30T08:59:16.111Z,1.73
2022-09-30T09:01:45.265Z,1.73
2022-09-30T09:04:13.346Z,1.33
2022-09-30T09:06:54.875Z,1.37
2022-09-30T09:09:32.683Z,1.67
2022-09-30T09:12:06.585Z,1.93
2022-09-30T09:14:33.872Z,2.33
2022-09-30T09:17:15.685Z,1.77
2022-09-30T09:19:48.323Z,2.37
2022-09-30T09:22:15.695Z,2.60
2022-09-30T09:24:46.103Z,2.20
2022-09-30T09:27:33.650Z,2.30
2022-09-30T09:30:15.021Z,2.30
2022-09-30T09:32:43.295Z,1.50
2022-09-30T09:35:15.329Z,2.00
2022-09-30T09:38:09.690Z,1.50
2022-09-30T09:40:57.155Z,1.80
2022-09-30T09:43:43.889Z,2.00
2022-09-30T09:46:17.664Z,1.73
2022-09-30T09:48:45.933Z,2.50
2022-09-30T09:51:20.349Z,2.60
2022-09-30T09:53:58.129Z,2.20
2022-09-30T09:56:34.582Z,2.30
2022-09-30T09:59:06.094Z,2.40
2022-09-30T10:01:34.699Z,2.20
2022-09-30T10:04:30.083Z,1.57
2022-09-30T10:07:01.623Z,2.23
2022-09-30T10:09:33.303Z,2.10
2022-09-30T10:12:06.746Z,1.63
2022-09-30T10:14:50.919Z,1.40
2022-09-30T10:17:37.931Z,1.40
2022-09-30T10:20:17.623Z,1.20
2022-09-30T10:22:44.989Z,1.20
2022-09-30T10:25:15.431Z,1.10
2022-09-30T10:27:56.746Z,1.30
2022-09-30T10:30:39.707Z,1.03
2022-09-30T10:33:15.298Z,1.27
2022-09-30T10:35:50.783Z,1.10
2022-09-30T10:38:18.093Z,1.00
2022-09-30T10:40:49.920Z,1.17
2022-09-30T10:43:34.974Z,1.07
2022-09-30T10:48:54.348Z,1.20
2022-09-30T10:51:33.897Z,1.17
2022-09-30T10:54:01.391Z,0.90
2022-09-30T10:56:37.906Z,0.90
2022-09-30T10:59:07.985Z,0.90
2022-09-30T11:01:41.195Z,1.10
2022-09-30T11:04:17.747Z,0.80
2022-09-30T11:06:46.330Z,1.10
2022-09-30T11:09:16.470Z,0.90
2022-09-30T11:11:51.954Z,0.90
2022-09-30T11:14:25.509Z,0.90
2022-09-30T11:17:00.632Z,0.87
2022-09-30T11:19:31.105Z,1.00
2022-09-30T11:22:04.822Z,0.90
2022-09-30T11:24:40.825Z,1.00
2022-09-30T11:27:17.343Z,0.90
2022-09-30T11:29:44.595Z,0.90
2022-09-30T11:32:18.043Z,0.90
2022-09-30T11:34:48.440Z,0.83
2022-09-30T11:37:24.125Z,0.83
2022-09-30T11:40:09.614Z,0.93
2022-09-30T11:42:46.703Z,0.97
2022-09-30T11:45:39.737Z,1.00
2022-09-30T11:48:19.031Z,0.90
2022-09-30T11:51:06.615Z,0.97
2022-09-30T11:53:33.842Z,0.97
2022-09-30T11:56:09.846Z,1.10
2022-09-30T11:58:42.459Z,1.00
2022-09-30T12:01:30.429Z,1.00
2022-09-30T12:04:02.066Z,0.90
2022-09-30T12:06:32.826Z,1.07
2022-09-30T12:09:03.945Z,1.10
2022-09-30T12:11:36.394Z,1.00
2022-09-30T12:14:11.405Z,1.20
2022-09-30T12:16:39.595Z,1.37
2022-09-30T12:19:21.778Z,1.30
2022-09-30T12:21:58.303Z,1.60
2022-09-30T12:24:28.633Z,1.20
2022-09-30T12:26:56.048Z,1.00
2022-09-30T12:29:45.638Z,1.17
2022-09-30T12:32:28.227Z,1.10
2022-09-30T12:35:02.067Z,1.23
2022-09-30T12:37:38.468Z,1.30
2022-09-30T12:40:05.741Z,1.00
2022-09-30T12:42:52.080Z,1.00
2022-09-30T12:45:38.217Z,1.03
2022-09-30T12:48:17.138Z,1.10
2022-09-30T12:50:48.258Z,1.00
2022-09-30T12:53:21.773Z,0.90
2022-09-30T12:55:49.552Z,1.13
2022-09-30T12:58:20.454Z,1.00
2022-09-30T13:01:08.301Z,1.00
2022-09-30T13:03:47.145Z,1.10
2022-09-30T13:06:15.820Z,1.00
2022-09-30T13:08:45.331Z,0.97
2022-09-30T13:11:31.309Z,1.07
2022-09-30T13:14:26.288Z,1.00
2022-09-30T13:17:09.269Z,1.03
2022-09-30T13:19:41.084Z,1.20
2022-09-30T13:22:20.867Z,1.17
2022-09-30T13:25:00.533Z,1.40
2022-09-30T13:27:46.786Z,1.50
2022-09-30T13:30:17.268Z,1.30
2022-09-30T13:32:51.357Z,1.20
2022-09-30T13:35:34.957Z,1.37
2022-09-30T13:38:20.282Z,1.10
2022-09-30T13:41:01.956Z,1.40
2022-09-30T13:43:50.908Z,1.20
2022-09-30T13:46:35.526Z,1.20
2022-09-30T13:49:05.978Z,1.30
2022-09-30T13:51:33.695Z,1.50
2022-09-30T13:54:06.512Z,1.20
2022-09-30T13:56:35.467Z,1.30
2022-09-30T13:59:09.762Z,1.55
2022-09-30T14:01:38.786Z,1.43
2022-09-30T14:04:24.873Z,1.33
2022-09-30T14:07:03.035Z,1.20
2022-09-30T14:09:30.325Z,1.20
2022-09-30T14:12:12.363Z,1.30
2022-09-30T14:14:49.461Z,1.17
2022-09-30T14:17:36.837Z,1.40
2022-09-30T14:20:12.171Z,1.40
2022-09-30T14:22:41.001Z,1.20
2022-09-30T14:25:19.027Z,1.10
2022-09-30T14:27:46.387Z,1.27
2022-09-30T14:30:13.675Z,1.10
2022-09-30T14:32:52.926Z,1.40
2022-09-30T14:35:25.056Z,1.10
2022-09-30T14:37:57.615Z,1.50
2022-09-30T14:40:26.964Z,1.50
2022-09-30T14:42:55.556Z,1.60
2022-09-30T14:45:28.441Z,1.33
2022-09-30T14:47:58.114Z,1.20
2022-09-30T14:50:27.531Z,1.40
2022-09-30T14:52:59.102Z,1.47
2022-09-30T14:55:28.650Z,1.50
2022-09-30T14:57:58.837Z,1.40
2022-09-30T15:00:31.780Z,1.60
2022-09-30T15:02:59.955Z,1.50
2022-09-30T15:05:27.339Z,1.40
2022-09-30T15:07:55.277Z,1.70
2022-09-30T15:10:23.973Z,1.80
2022-09-30T15:12:52.461Z,1.50
2022-09-30T15:15:28.624Z,1.43
2022-09-30T15:17:56.206Z,1.43
2022-09-30T15:20:26.973Z,1.80
2022-09-30T15:22:54.784Z,1.60
2022-09-30T15:25:22.599Z,1.40
2022-09-30T15:27:50.744Z,1.43
2022-09-30T15:30:18.298Z,1.50
2022-09-30T15:32:46.202Z,1.30
2022-09-30T15:35:15.525Z,1.40
2022-09-30T15:37:43.525Z,1.30
2022-09-30T15:40:37.395Z,1.50
2022-09-30T15:43:15.610Z,1.53
2022-09-30T15:45:44.087Z,1.57
2022-09-30T15:48:14.289Z,1.95
2022-09-30T15:50:49.211Z,2.00
2022-09-30T15:53:21.423Z,1.83
2022-09-30T15:55:55.525Z,1.50
2022-09-30T15:58:33.680Z,1.47
2022-09-30T16:01:11.973Z,1.60
2022-09-30T16:03:39.458Z,2.10
2022-09-30T16:06:07.640Z,1.67
2022-09-30T16:08:45.426Z,1.93
2022-09-30T16:11:26.036Z,1.80
2022-09-30T16:13:54.055Z,1.90
2022-09-30T16:16:23.919Z,1.80
2022-09-30T16:18:53.350Z,2.00
2022-09-30T16:21:43.932Z,1.97
2022-09-30T16:24:41.049Z,2.10
2022-09-30T16:27:22.021Z,2.20
2022-09-30T16:29:49.367Z,2.20
2022-09-30T16:32:17.710Z,2.13
2022-09-30T16:34:45.055Z,2.00
2022-09-30T16:37:13.456Z,2.10
2022-09-30T16:39:41.108Z,1.80
2022-09-30T16:42:13.397Z,2.03
2022-09-30T16:44:42.177Z,1.80
2022-09-30T16:47:12.729Z,1.57
2022-09-30T16:49:42.633Z,1.70
2022-09-30T16:52:11.408Z,1.87
2022-09-30T16:54:38.665Z,2.00
2022-09-30T16:57:06.145Z,1.93
2022-09-30T16:59:33.573Z,1.60
2022-09-30T17:02:01.656Z,1.63
2022-09-30T17:04:29.218Z,1.63
2022-09-30T17:06:59.613Z,1.87
2022-09-30T17:09:26.942Z,1.80
2022-09-30T17:11:54.240Z,1.60
2022-09-30T17:14:21.545Z,1.87
2022-09-30T17:16:49.003Z,1.27
2022-09-30T17:19:16.334Z,1.60
2022-09-30T17:21:43.598Z,1.70
2022-09-30T17:24:10.869Z,1.63
2022-09-30T17:26:39.026Z,1.30
2022-09-30T17:29:30.868Z,1.30
2022-09-30T17:31:55.501Z,1.50
2022-09-30T17:34:22.962Z,1.50
2022-09-30T17:36:50.479Z,1.90
2022-09-30T17:39:17.841Z,1.50
2022-09-30T17:42:04.071Z,1.40
2022-09-30T17:44:32.202Z,1.40
2022-09-30T17:47:00.587Z,1.63
2022-09-30T17:49:37.451Z,1.43
2022-09-30T17:52:05.542Z,1.30
2022-09-30T17:54:34.428Z,1.60
2022-09-30T17:57:01.866Z,1.60
2022-09-30T17:59:30.064Z,1.40
2022-09-30T18:01:57.472Z,1.43
2022-09-30T18:04:26.081Z,1.30
2022-09-30T18:06:54.093Z,1.70
2022-09-30T18:09:21.698Z,1.87
2022-09-30T18:11:49.151Z,1.50
2022-09-30T18:14:16.804Z,1.50
2022-09-30T18:16:44.374Z,1.43
2022-09-30T18:19:11.729Z,1.47
2022-09-30T18:21:39.052Z,1.20
2022-09-30T18:24:07.408Z,1.73
2022-09-30T18:26:35.950Z,1.47
2022-09-30T18:29:04.304Z,1.20
2022-09-30T18:31:37.492Z,1.60
2022-09-30T18:34:05.978Z,1.57
2022-09-30T18:36:33.229Z,1.43
2022-09-30T18:39:02.098Z,1.80
2022-09-30T18:41:31.829Z,1.17
2022-09-30T18:44:02.563Z,1.37
2022-09-30T18:46:30.652Z,1.60
2022-09-30T18:48:58.379Z,1.40
2022-09-30T18:51:25.815Z,1.47
2022-09-30T18:53:57.907Z,1.30
2022-09-30T18:56:26.317Z,1.20
2022-09-30T18:58:53.705Z,1.23
2022-09-30T19:01:22.172Z,1.40
2022-09-30T19:03:49.584Z,1.47
2022-09-30T19:06:17.054Z,1.10
2022-09-30T19:08:44.333Z,1.20
2022-09-30T19:11:14.543Z,1.40
2022-09-30T19:13:43.072Z,1.63
2022-09-30T19:16:11.175Z,1.27
2022-09-30T19:18:39.567Z,1.27
2022-09-30T19:21:11.906Z,1.17
2022-09-30T19:23:42.172Z,1.60
2022-09-30T19:26:10.818Z,1.47
2022-09-30T19:28:38.195Z,1.30
2022-09-30T19:31:10.362Z,1.30
2022-09-30T19:33:45.239Z,1.07
2022-09-30T19:36:17.309Z,1.30
2022-09-30T19:38:45.525Z,1.50
2022-09-30T19:41:14.466Z,1.50
2022-09-30T19:43:43.527Z,1.30
2022-09-30T19:46:12.120Z,1.30
2022-09-30T19:48:39.782Z,1.23
2022-09-30T19:51:19.565Z,1.27
2022-09-30T19:54:01.531Z,1.30
2022-09-30T19:56:31.712Z,1.40
2022-09-30T19:59:00.219Z,1.50
2022-09-30T20:01:28.501Z,1.33
2022-09-30T20:04:00.279Z,1.27
2022-09-30T20:06:28.175Z,1.40
2022-09-30T20:08:59.093Z,1.50
2022-09-30T20:11:33.502Z,1.30
2022-09-30T20:14:20.206Z,1.37
2022-09-30T20:16:48.522Z,1.40
2022-09-30T20:19:16.489Z,1.20
2022-09-30T20:21:44.023Z,1.50
2022-09-30T20:24:12.229Z,1.30
2022-09-30T20:26:39.886Z,1.20
2022-09-30T20:29:10.624Z,1.40
2022-09-30T20:31:38.773Z,1.70
2022-09-30T20:34:06.091Z,1.47
2022-09-30T20:36:34.913Z,1.23
2022-09-30T20:39:03.217Z,1.50
2022-09-30T20:41:34.996Z,1.20
2022-09-30T20:44:03.633Z,1.30
2022-09-30T20:46:33.980Z,1.20
2022-09-30T20:49:01.741Z,1.10
2022-09-30T20:51:30.253Z,1.20
2022-09-30T20:53:58.507Z,1.43
2022-09-30T20:56:28.519Z,1.27
2022-09-30T20:59:00.235Z,1.40
2022-09-30T21:01:27.928Z,1.47
2022-09-30T21:03:55.305Z,1.50
2022-09-30T21:06:25.637Z,1.20
2022-09-30T21:08:54.187Z,1.17
2022-09-30T21:11:23.350Z,1.20
2022-09-30T21:13:52.230Z,1.40
2022-09-30T21:16:24.560Z,1.30
2022-09-30T21:18:52.387Z,1.37
2022-09-30T21:21:21.238Z,1.40
2022-09-30T21:23:48.755Z,1.40
2022-09-30T21:26:18.140Z,1.30
2022-09-30T21:28:49.652Z,1.20
2022-09-30T21:31:17.600Z,1.10
2022-09-30T21:33:45.092Z,1.10
2022-09-30T21:36:12.725Z,1.10
2022-09-30T21:38:40.022Z,1.20
2022-09-30T21:41:08.469Z,1.30
2022-09-30T21:43:36.998Z,1.20
2022-09-30T21:46:05.876Z,1.13
2022-09-30T21:48:33.671Z,1.20
2022-09-30T21:51:01.161Z,1.20
2022-09-30T21:53:29.229Z,1.10
2022-09-30T21:56:03.199Z,1.17
2022-09-30T21:58:31.657Z,1.27
2022-09-30T22:01:00.363Z,1.10
2022-09-30T22:03:30.355Z,1.20
2022-09-30T22:05:59.107Z,1.13
2022-09-30T22:08:26.570Z,1.10
2022-09-30T22:10:53.886Z,1.00
2022-09-30T22:13:21.206Z,1.33
2022-09-30T22:15:48.581Z,1.10
2022-09-30T22:18:17.277Z,1.30
2022-09-30T22:20:45.059Z,1.20
2022-09-30T22:23:12.895Z,1.20
2022-09-30T22:25:40.414Z,1.00
2022-09-30T22:28:08.126Z,1.27
2022-09-30T22:30:36.039Z,1.13
2022-09-30T22:33:22.232Z,1.30
2022-09-30T22:36:08.195Z,1.20
2022-09-30T22:38:35.788Z,1.30
2022-09-30T22:41:03.074Z,1.17
2022-09-30T22:43:32.845Z,1.20
2022-09-30T22:46:03.295Z,1.40
2022-09-30T22:48:31.387Z,0.97
2022-09-30T22:50:59.312Z,1.30
2022-09-30T22:53:26.881Z,1.10
2022-09-30T22:55:54.192Z,1.10
2022-09-30T22:58:23.299Z,1.33
2022-09-30T23:00:57.440Z,1.20
2022-09-30T23:03:25.553Z,1.33
2022-09-30T23:05:53.593Z,1.00
2022-09-30T23:08:21.567Z,1.13
2022-09-30T23:10:52.265Z,1.20
2022-09-30T23:13:20.198Z,1.20
2022-09-30T23:15:47.986Z,1.07
2022-09-30T23:18:17.249Z,1.20
2022-09-30T23:20:53.587Z,1.07
2022-09-30T23:23:20.882Z,1.10
2022-09-30T23:25:48.143Z,1.10
2022-09-30T23:28:15.605Z,1.10
2022-09-30T23:30:42.936Z,1.30
2022-09-30T23:33:10.735Z,1.17
2022-09-30T23:35:38.002Z,1.70
2022-09-30T23:38:05.269Z,1.17
2022-09-30T23:40:32.681Z,1.30
2022-09-30T23:42:59.966Z,1.40
2022-09-30T23:45:27.264Z,1.20
2022-09-30T23:47:56.400Z,1.30
2022-09-30T23:50:24.791Z,1.00
2022-09-30T23:52:52.231Z,1.40
2022-09-30T23:55:19.491Z,1.20
2022-09-30T23:57:47.479Z,1.10
